sensor_id;sensor_type;location;lat;lon;timestamp;P1;durP1;ratioP1;P2;durP2;ratioP2
78312;SDS011;67568;47.438;21.408;2023-02-22T00:00:15;9.02;;;4.53;;
78312;SDS011;67568;47.438;21.408;2023-02-22T00:02:48;9.73;;;4.60;;
78312;SDS011;67568;47.438;21.408;2023-02-22T00:05:16;9.95;;;5.32;;
78312;SDS011;67568;47.438;21.408;2023-02-22T00:07:48;11.88;;;6.07;;
78312;SDS011;67568;47.438;21.408;2023-02-22T00:10:15;10.85;;;5.78;;
78312;SDS011;67568;47.438;21.408;2023-02-22T00:12:42;9.82;;;5.32;;
78312;SDS011;67568;47.438;21.408;2023-02-22T00:15:09;11.85;;;5.70;;
78312;SDS011;67568;47.438;21.408;2023-02-22T00:17:35;12.00;;;5.60;;
78312;SDS011;67568;47.438;21.408;2023-02-22T00:20:02;11.35;;;5.50;;
78312;SDS011;67568;47.438;21.408;2023-02-22T00:22:29;11.25;;;5.65;;
78312;SDS011;67568;47.438;21.408;2023-02-22T00:24:56;11.30;;;5.78;;
78312;SDS011;67568;47.438;21.408;2023-02-22T00:27:23;9.15;;;4.95;;
78312;SDS011;67568;47.438;21.408;2023-02-22T00:29:50;10.07;;;4.55;;
78312;SDS011;67568;47.438;21.408;2023-02-22T00:32:16;9.13;;;4.13;;
78312;SDS011;67568;47.438;21.408;2023-02-22T00:34:43;8.68;;;4.47;;
78312;SDS011;67568;47.438;21.408;2023-02-22T00:37:09;8.05;;;4.20;;
78312;SDS011;67568;47.438;21.408;2023-02-22T00:39:36;7.25;;;3.83;;
78312;SDS011;67568;47.438;21.408;2023-02-22T00:42:03;7.38;;;4.00;;
78312;SDS011;67568;47.438;21.408;2023-02-22T00:44:29;8.00;;;4.13;;
78312;SDS011;67568;47.438;21.408;2023-02-22T00:46:56;9.23;;;4.50;;
78312;SDS011;67568;47.438;21.408;2023-02-22T00:49:23;8.55;;;4.45;;
78312;SDS011;67568;47.438;21.408;2023-02-22T00:51:49;8.88;;;4.28;;
78312;SDS011;67568;47.438;21.408;2023-02-22T00:54:16;10.13;;;4.43;;
78312;SDS011;67568;47.438;21.408;2023-02-22T00:56:43;9.07;;;4.47;;
78312;SDS011;67568;47.438;21.408;2023-02-22T00:59:09;8.98;;;4.53;;
78312;SDS011;67568;47.438;21.408;2023-02-22T01:01:36;7.90;;;4.13;;
78312;SDS011;67568;47.438;21.408;2023-02-22T01:04:03;7.93;;;4.22;;
78312;SDS011;67568;47.438;21.408;2023-02-22T01:06:30;10.38;;;4.28;;
78312;SDS011;67568;47.438;21.408;2023-02-22T01:08:57;9.60;;;4.72;;
78312;SDS011;67568;47.438;21.408;2023-02-22T01:11:23;7.68;;;3.97;;
78312;SDS011;67568;47.438;21.408;2023-02-22T01:13:50;9.30;;;4.20;;
78312;SDS011;67568;47.438;21.408;2023-02-22T01:16:19;8.40;;;4.05;;
78312;SDS011;67568;47.438;21.408;2023-02-22T01:18:46;7.97;;;4.13;;
78312;SDS011;67568;47.438;21.408;2023-02-22T01:21:13;9.20;;;4.50;;
78312;SDS011;67568;47.438;21.408;2023-02-22T01:23:40;9.20;;;4.40;;
78312;SDS011;67568;47.438;21.408;2023-02-22T01:26:09;8.65;;;4.30;;
78312;SDS011;67568;47.438;21.408;2023-02-22T01:28:36;10.73;;;4.53;;
78312;SDS011;67568;47.438;21.408;2023-02-22T01:31:03;9.75;;;4.30;;
78312;SDS011;67568;47.438;21.408;2023-02-22T01:33:30;9.77;;;4.43;;
78312;SDS011;67568;47.438;21.408;2023-02-22T01:35:57;8.27;;;4.55;;
78312;SDS011;67568;47.438;21.408;2023-02-22T01:38:24;10.00;;;4.78;;
78312;SDS011;67568;47.438;21.408;2023-02-22T01:40:50;10.15;;;5.05;;
78312;SDS011;67568;47.438;21.408;2023-02-22T01:43:19;11.23;;;4.93;;
78312;SDS011;67568;47.438;21.408;2023-02-22T01:48:49;7.60;;;4.47;;
78312;SDS011;67568;47.438;21.408;2023-02-22T01:51:35;8.82;;;4.30;;
78312;SDS011;67568;47.438;21.408;2023-02-22T01:54:09;10.10;;;4.75;;
78312;SDS011;67568;47.438;21.408;2023-02-22T01:56:39;9.95;;;4.60;;
78312;SDS011;67568;47.438;21.408;2023-02-22T01:59:13;8.20;;;4.18;;
78312;SDS011;67568;47.438;21.408;2023-02-22T02:01:40;8.40;;;4.55;;
78312;SDS011;67568;47.438;21.408;2023-02-22T02:04:11;11.25;;;5.00;;
78312;SDS011;67568;47.438;21.408;2023-02-22T02:06:41;8.52;;;4.50;;
78312;SDS011;67568;47.438;21.408;2023-02-22T02:09:13;10.43;;;5.05;;
78312;SDS011;67568;47.438;21.408;2023-02-22T02:11:46;8.68;;;4.70;;
78312;SDS011;67568;47.438;21.408;2023-02-22T02:14:14;8.30;;;4.70;;
78312;SDS011;67568;47.438;21.408;2023-02-22T02:16:46;8.50;;;4.57;;
78312;SDS011;67568;47.438;21.408;2023-02-22T02:22:18;8.10;;;4.30;;
78312;SDS011;67568;47.438;21.408;2023-02-22T02:33:47;10.90;;;4.07;;
78312;SDS011;67568;47.438;21.408;2023-02-22T02:36:31;11.07;;;4.18;;
78312;SDS011;67568;47.438;21.408;2023-02-22T02:41:46;8.57;;;4.18;;
78312;SDS011;67568;47.438;21.408;2023-02-22T02:46:55;8.50;;;4.03;;
78312;SDS011;67568;47.438;21.408;2023-02-22T02:49:32;8.75;;;4.60;;
78312;SDS011;67568;47.438;21.408;2023-02-22T02:52:05;8.88;;;4.60;;
78312;SDS011;67568;47.438;21.408;2023-02-22T02:54:36;11.80;;;5.15;;
78312;SDS011;67568;47.438;21.408;2023-02-22T02:57:04;10.88;;;5.32;;
78312;SDS011;67568;47.438;21.408;2023-02-22T02:59:32;11.35;;;5.72;;
78312;SDS011;67568;47.438;21.408;2023-02-22T03:02:17;10.80;;;5.40;;
78312;SDS011;67568;47.438;21.408;2023-02-22T03:08:12;13.50;;;5.35;;
78312;SDS011;67568;47.438;21.408;2023-02-22T03:11:02;12.48;;;5.25;;
78312;SDS011;67568;47.438;21.408;2023-02-22T03:13:39;12.45;;;5.40;;
78312;SDS011;67568;47.438;21.408;2023-02-22T03:16:12;10.85;;;5.50;;
78312;SDS011;67568;47.438;21.408;2023-02-22T03:18:57;11.30;;;5.68;;
78312;SDS011;67568;47.438;21.408;2023-02-22T03:27:06;9.40;;;4.95;;
78312;SDS011;67568;47.438;21.408;2023-02-22T03:29:38;11.98;;;5.40;;
78312;SDS011;67568;47.438;21.408;2023-02-22T03:32:11;12.35;;;5.25;;
78312;SDS011;67568;47.438;21.408;2023-02-22T03:34:42;11.10;;;5.10;;
78312;SDS011;67568;47.438;21.408;2023-02-22T03:37:14;14.25;;;5.88;;
78312;SDS011;67568;47.438;21.408;2023-02-22T03:39:44;10.77;;;5.50;;
78312;SDS011;67568;47.438;21.408;2023-02-22T03:42:23;12.82;;;6.60;;
78312;SDS011;67568;47.438;21.408;2023-02-22T03:44:57;14.85;;;5.97;;
78312;SDS011;67568;47.438;21.408;2023-02-22T03:47:28;15.43;;;6.43;;
78312;SDS011;67568;47.438;21.408;2023-02-22T03:50:03;13.65;;;6.40;;
78312;SDS011;67568;47.438;21.408;2023-02-22T03:52:34;11.55;;;5.43;;
78312;SDS011;67568;47.438;21.408;2023-02-22T03:55:02;14.30;;;6.47;;
78312;SDS011;67568;47.438;21.408;2023-02-22T03:57:34;16.30;;;6.65;;
78312;SDS011;67568;47.438;21.408;2023-02-22T04:00:07;18.33;;;7.15;;
78312;SDS011;67568;47.438;21.408;2023-02-22T04:02:37;15.55;;;7.18;;
78312;SDS011;67568;47.438;21.408;2023-02-22T04:05:04;15.02;;;6.50;;
78312;SDS011;67568;47.438;21.408;2023-02-22T04:07:31;14.00;;;6.32;;
78312;SDS011;67568;47.438;21.408;2023-02-22T04:09:58;13.50;;;5.95;;
78312;SDS011;67568;47.438;21.408;2023-02-22T04:12:24;13.48;;;5.70;;
78312;SDS011;67568;47.438;21.408;2023-02-22T04:14:51;12.43;;;5.60;;
78312;SDS011;67568;47.438;21.408;2023-02-22T04:17:18;12.45;;;5.95;;
78312;SDS011;67568;47.438;21.408;2023-02-22T04:19:44;12.90;;;5.85;;
78312;SDS011;67568;47.438;21.408;2023-02-22T04:22:11;11.88;;;5.18;;
78312;SDS011;67568;47.438;21.408;2023-02-22T04:24:38;13.57;;;5.60;;
78312;SDS011;67568;47.438;21.408;2023-02-22T04:27:05;12.13;;;5.38;;
78312;SDS011;67568;47.438;21.408;2023-02-22T04:29:31;12.15;;;5.30;;
78312;SDS011;67568;47.438;21.408;2023-02-22T04:31:58;12.60;;;5.43;;
78312;SDS011;67568;47.438;21.408;2023-02-22T04:34:25;10.60;;;5.18;;
78312;SDS011;67568;47.438;21.408;2023-02-22T04:36:51;13.13;;;5.55;;
78312;SDS011;67568;47.438;21.408;2023-02-22T04:39:18;12.02;;;5.35;;
78312;SDS011;67568;47.438;21.408;2023-02-22T04:41:48;11.00;;;5.35;;
78312;SDS011;67568;47.438;21.408;2023-02-22T04:44:15;12.77;;;5.20;;
78312;SDS011;67568;47.438;21.408;2023-02-22T04:46:41;14.05;;;5.63;;
78312;SDS011;67568;47.438;21.408;2023-02-22T04:49:08;12.57;;;5.47;;
78312;SDS011;67568;47.438;21.408;2023-02-22T04:51:34;13.63;;;5.30;;
78312;SDS011;67568;47.438;21.408;2023-02-22T04:54:01;12.55;;;6.05;;
78312;SDS011;67568;47.438;21.408;2023-02-22T04:56:28;13.35;;;5.45;;
78312;SDS011;67568;47.438;21.408;2023-02-22T04:58:55;12.57;;;5.88;;
78312;SDS011;67568;47.438;21.408;2023-02-22T05:01:22;12.88;;;6.13;;
78312;SDS011;67568;47.438;21.408;2023-02-22T05:03:48;12.35;;;5.47;;
78312;SDS011;67568;47.438;21.408;2023-02-22T05:06:15;12.15;;;5.53;;
78312;SDS011;67568;47.438;21.408;2023-02-22T05:08:43;10.55;;;5.10;;
78312;SDS011;67568;47.438;21.408;2023-02-22T05:11:10;19.42;;;6.15;;
78312;SDS011;67568;47.438;21.408;2023-02-22T05:13:36;12.85;;;5.22;;
78312;SDS011;67568;47.438;21.408;2023-02-22T05:16:03;11.82;;;5.75;;
78312;SDS011;67568;47.438;21.408;2023-02-22T05:18:30;10.88;;;5.38;;
78312;SDS011;67568;47.438;21.408;2023-02-22T05:20:57;13.10;;;5.45;;
78312;SDS011;67568;47.438;21.408;2023-02-22T05:23:24;11.18;;;4.80;;
78312;SDS011;67568;47.438;21.408;2023-02-22T05:25:50;11.68;;;5.03;;
78312;SDS011;67568;47.438;21.408;2023-02-22T05:28:17;13.00;;;5.15;;
78312;SDS011;67568;47.438;21.408;2023-02-22T05:30:44;14.07;;;5.53;;
78312;SDS011;67568;47.438;21.408;2023-02-22T05:33:11;13.23;;;5.63;;
78312;SDS011;67568;47.438;21.408;2023-02-22T05:35:37;17.75;;;5.82;;
78312;SDS011;67568;47.438;21.408;2023-02-22T05:38:05;21.08;;;6.70;;
78312;SDS011;67568;47.438;21.408;2023-02-22T05:40:32;19.20;;;6.97;;
78312;SDS011;67568;47.438;21.408;2023-02-22T05:42:59;20.17;;;7.38;;
78312;SDS011;67568;47.438;21.408;2023-02-22T05:45:26;15.88;;;6.30;;
78312;SDS011;67568;47.438;21.408;2023-02-22T05:47:53;16.73;;;6.40;;
78312;SDS011;67568;47.438;21.408;2023-02-22T05:50:20;22.42;;;6.15;;
78312;SDS011;67568;47.438;21.408;2023-02-22T05:52:47;15.00;;;5.60;;
78312;SDS011;67568;47.438;21.408;2023-02-22T05:55:15;16.83;;;6.85;;
78312;SDS011;67568;47.438;21.408;2023-02-22T05:57:44;17.95;;;6.30;;
78312;SDS011;67568;47.438;21.408;2023-02-22T06:00:21;17.05;;;6.35;;
78312;SDS011;67568;47.438;21.408;2023-02-22T06:02:53;13.98;;;5.70;;
78312;SDS011;67568;47.438;21.408;2023-02-22T06:05:21;20.38;;;8.45;;
78312;SDS011;67568;47.438;21.408;2023-02-22T06:07:48;24.20;;;9.63;;
78312;SDS011;67568;47.438;21.408;2023-02-22T06:10:15;15.73;;;6.72;;
78312;SDS011;67568;47.438;21.408;2023-02-22T06:12:41;13.38;;;6.63;;
78312;SDS011;67568;47.438;21.408;2023-02-22T06:15:08;21.23;;;8.70;;
78312;SDS011;67568;47.438;21.408;2023-02-22T06:17:41;23.35;;;11.32;;
78312;SDS011;67568;47.438;21.408;2023-02-22T06:20:12;25.25;;;11.20;;
78312;SDS011;67568;47.438;21.408;2023-02-22T06:22:42;18.02;;;8.23;;
78312;SDS011;67568;47.438;21.408;2023-02-22T06:25:09;21.17;;;10.13;;
78312;SDS011;67568;47.438;21.408;2023-02-22T06:27:40;18.05;;;10.32;;
78312;SDS011;67568;47.438;21.408;2023-02-22T06:30:08;19.95;;;8.80;;
78312;SDS011;67568;47.438;21.408;2023-02-22T06:32:38;20.33;;;7.53;;
78312;SDS011;67568;47.438;21.408;2023-02-22T06:35:05;18.48;;;7.28;;
78312;SDS011;67568;47.438;21.408;2023-02-22T06:37:32;17.40;;;6.93;;
78312;SDS011;67568;47.438;21.408;2023-02-22T06:39:59;16.17;;;6.55;;
78312;SDS011;67568;47.438;21.408;2023-02-22T06:42:31;17.05;;;6.97;;
78312;SDS011;67568;47.438;21.408;2023-02-22T06:44:58;17.10;;;7.45;;
78312;SDS011;67568;47.438;21.408;2023-02-22T06:47:24;19.10;;;8.35;;
78312;SDS011;67568;47.438;21.408;2023-02-22T06:49:56;26.27;;;10.25;;
78312;SDS011;67568;47.438;21.408;2023-02-22T06:52:26;56.75;;;19.08;;
78312;SDS011;67568;47.438;21.408;2023-02-22T06:54:53;17.45;;;7.38;;
78312;SDS011;67568;47.438;21.408;2023-02-22T06:57:20;13.95;;;5.55;;
78312;SDS011;67568;47.438;21.408;2023-02-22T06:59:49;34.20;;;15.48;;
78312;SDS011;67568;47.438;21.408;2023-02-22T07:02:16;22.88;;;7.60;;
78312;SDS011;67568;47.438;21.408;2023-02-22T07:04:43;21.05;;;8.05;;
78312;SDS011;67568;47.438;21.408;2023-02-22T07:07:10;58.30;;;22.00;;
78312;SDS011;67568;47.438;21.408;2023-02-22T07:09:37;14.55;;;5.72;;
78312;SDS011;67568;47.438;21.408;2023-02-22T07:12:06;17.08;;;6.15;;
78312;SDS011;67568;47.438;21.408;2023-02-22T07:14:33;33.55;;;12.13;;
78312;SDS011;67568;47.438;21.408;2023-02-22T07:17:00;26.00;;;11.02;;
78312;SDS011;67568;47.438;21.408;2023-02-22T07:19:26;16.98;;;7.00;;
78312;SDS011;67568;47.438;21.408;2023-02-22T07:21:53;32.63;;;14.25;;
78312;SDS011;67568;47.438;21.408;2023-02-22T07:24:19;13.73;;;6.05;;
78312;SDS011;67568;47.438;21.408;2023-02-22T07:26:46;25.27;;;12.93;;
78312;SDS011;67568;47.438;21.408;2023-02-22T07:29:13;20.25;;;10.63;;
78312;SDS011;67568;47.438;21.408;2023-02-22T07:31:39;17.15;;;8.93;;
78312;SDS011;67568;47.438;21.408;2023-02-22T07:34:06;15.85;;;6.50;;
78312;SDS011;67568;47.438;21.408;2023-02-22T07:36:36;18.85;;;5.30;;
78312;SDS011;67568;47.438;21.408;2023-02-22T07:39:02;14.15;;;4.03;;
78312;SDS011;67568;47.438;21.408;2023-02-22T07:41:29;9.15;;;4.25;;
78312;SDS011;67568;47.438;21.408;2023-02-22T07:43:56;12.38;;;4.70;;
78312;SDS011;67568;47.438;21.408;2023-02-22T07:46:22;14.18;;;3.63;;
78312;SDS011;67568;47.438;21.408;2023-02-22T07:48:49;12.02;;;3.40;;
78312;SDS011;67568;47.438;21.408;2023-02-22T07:51:16;9.80;;;3.30;;
78312;SDS011;67568;47.438;21.408;2023-02-22T07:53:43;11.23;;;2.85;;
78312;SDS011;67568;47.438;21.408;2023-02-22T07:56:09;9.35;;;2.78;;
78312;SDS011;67568;47.438;21.408;2023-02-22T07:58:36;17.52;;;3.60;;
78312;SDS011;67568;47.438;21.408;2023-02-22T08:01:08;11.30;;;3.30;;
78312;SDS011;67568;47.438;21.408;2023-02-22T08:03:35;10.23;;;3.90;;
78312;SDS011;67568;47.438;21.408;2023-02-22T08:06:02;13.30;;;3.30;;
78312;SDS011;67568;47.438;21.408;2023-02-22T08:08:31;12.43;;;3.47;;
78312;SDS011;67568;47.438;21.408;2023-02-22T08:10:58;11.65;;;2.65;;
78312;SDS011;67568;47.438;21.408;2023-02-22T08:13:25;14.15;;;2.92;;
78312;SDS011;67568;47.438;21.408;2023-02-22T08:15:52;9.40;;;2.70;;
78312;SDS011;67568;47.438;21.408;2023-02-22T08:18:25;13.57;;;3.20;;
78312;SDS011;67568;47.438;21.408;2023-02-22T08:20:52;14.20;;;3.08;;
78312;SDS011;67568;47.438;21.408;2023-02-22T08:23:21;12.43;;;3.53;;
78312;SDS011;67568;47.438;21.408;2023-02-22T08:25:51;11.45;;;3.08;;
78312;SDS011;67568;47.438;21.408;2023-02-22T08:28:22;11.18;;;3.08;;
78312;SDS011;67568;47.438;21.408;2023-02-22T08:30:49;13.50;;;3.72;;
78312;SDS011;67568;47.438;21.408;2023-02-22T08:33:17;13.63;;;3.60;;
78312;SDS011;67568;47.438;21.408;2023-02-22T08:35:44;12.57;;;3.03;;
78312;SDS011;67568;47.438;21.408;2023-02-22T08:38:45;9.75;;;3.22;;
78312;SDS011;67568;47.438;21.408;2023-02-22T08:41:05;12.40;;;2.85;;
78312;SDS011;67568;47.438;21.408;2023-02-22T08:43:31;12.23;;;3.05;;
78312;SDS011;67568;47.438;21.408;2023-02-22T08:45:58;14.23;;;3.58;;
78312;SDS011;67568;47.438;21.408;2023-02-22T08:48:25;13.93;;;3.55;;
78312;SDS011;67568;47.438;21.408;2023-02-22T08:50:51;13.60;;;2.55;;
78312;SDS011;67568;47.438;21.408;2023-02-22T08:53:18;15.68;;;3.28;;
78312;SDS011;67568;47.438;21.408;2023-02-22T08:55:54;13.48;;;3.22;;
78312;SDS011;67568;47.438;21.408;2023-02-22T08:58:24;11.40;;;3.97;;
78312;SDS011;67568;47.438;21.408;2023-02-22T09:00:51;13.40;;;3.83;;
78312;SDS011;67568;47.438;21.408;2023-02-22T09:03:17;13.13;;;3.47;;
78312;SDS011;67568;47.438;21.408;2023-02-22T09:05:44;14.02;;;3.53;;
78312;SDS011;67568;47.438;21.408;2023-02-22T09:08:11;14.23;;;3.40;;
78312;SDS011;67568;47.438;21.408;2023-02-22T09:10:38;11.25;;;3.58;;
78312;SDS011;67568;47.438;21.408;2023-02-22T09:13:05;11.27;;;3.25;;
78312;SDS011;67568;47.438;21.408;2023-02-22T09:15:32;9.43;;;3.22;;
78312;SDS011;67568;47.438;21.408;2023-02-22T09:18:00;13.70;;;3.83;;
78312;SDS011;67568;47.438;21.408;2023-02-22T09:20:27;11.02;;;2.90;;
78312;SDS011;67568;47.438;21.408;2023-02-22T09:22:55;12.32;;;2.90;;
78312;SDS011;67568;47.438;21.408;2023-02-22T09:25:22;12.48;;;2.60;;
78312;SDS011;67568;47.438;21.408;2023-02-22T09:27:49;13.77;;;3.33;;
78312;SDS011;67568;47.438;21.408;2023-02-22T09:32:53;14.85;;;4.60;;
78312;SDS011;67568;47.438;21.408;2023-02-22T09:35:23;12.50;;;3.58;;
78312;SDS011;67568;47.438;21.408;2023-02-22T09:38:19;12.18;;;3.10;;
78312;SDS011;67568;47.438;21.408;2023-02-22T09:41:11;15.63;;;3.55;;
78312;SDS011;67568;47.438;21.408;2023-02-22T09:46:43;11.95;;;3.63;;
78312;SDS011;67568;47.438;21.408;2023-02-22T09:51:59;10.88;;;2.85;;
78312;SDS011;67568;47.438;21.408;2023-02-22T09:54:41;10.48;;;3.22;;
78312;SDS011;67568;47.438;21.408;2023-02-22T09:57:15;13.40;;;2.67;;
78312;SDS011;67568;47.438;21.408;2023-02-22T09:59:47;13.07;;;3.30;;
78312;SDS011;67568;47.438;21.408;2023-02-22T10:02:29;11.85;;;3.45;;
78312;SDS011;67568;47.438;21.408;2023-02-22T10:07:53;11.45;;;3.05;;
78312;SDS011;67568;47.438;21.408;2023-02-22T10:10:25;10.30;;;2.87;;
78312;SDS011;67568;47.438;21.408;2023-02-22T10:13:10;10.02;;;2.63;;
78312;SDS011;67568;47.438;21.408;2023-02-22T10:16:12;12.57;;;3.10;;
78312;SDS011;67568;47.438;21.408;2023-02-22T10:18:58;20.08;;;6.70;;
78312;SDS011;67568;47.438;21.408;2023-02-22T10:21:54;14.10;;;3.65;;
78312;SDS011;67568;47.438;21.408;2023-02-22T10:24:55;12.13;;;3.17;;
78312;SDS011;67568;47.438;21.408;2023-02-22T10:27:33;14.57;;;4.60;;
78312;SDS011;67568;47.438;21.408;2023-02-22T10:32:56;11.85;;;3.40;;
78312;SDS011;67568;47.438;21.408;2023-02-22T10:35:44;9.57;;;3.20;;
78312;SDS011;67568;47.438;21.408;2023-02-22T10:38:19;9.30;;;2.90;;
78312;SDS011;67568;47.438;21.408;2023-02-22T10:43:39;13.13;;;4.72;;
78312;SDS011;67568;47.438;21.408;2023-02-22T10:46:07;10.45;;;3.67;;
78312;SDS011;67568;47.438;21.408;2023-02-22T10:48:39;12.23;;;4.13;;
78312;SDS011;67568;47.438;21.408;2023-02-22T10:51:10;11.40;;;3.83;;
78312;SDS011;67568;47.438;21.408;2023-02-22T10:53:37;12.98;;;3.38;;
78312;SDS011;67568;47.438;21.408;2023-02-22T10:56:05;17.70;;;5.18;;
78312;SDS011;67568;47.438;21.408;2023-02-22T10:58:41;15.88;;;4.55;;
78312;SDS011;67568;47.438;21.408;2023-02-22T11:01:26;18.25;;;7.82;;
78312;SDS011;67568;47.438;21.408;2023-02-22T11:06:43;9.90;;;3.00;;
78312;SDS011;67568;47.438;21.408;2023-02-22T11:09:12;11.20;;;3.10;;
78312;SDS011;67568;47.438;21.408;2023-02-22T11:12:08;13.98;;;3.38;;
78312;SDS011;67568;47.438;21.408;2023-02-22T11:14:46;13.68;;;3.80;;
78312;SDS011;67568;47.438;21.408;2023-02-22T11:17:15;20.43;;;6.03;;
78312;SDS011;67568;47.438;21.408;2023-02-22T11:19:47;12.00;;;3.28;;
78312;SDS011;67568;47.438;21.408;2023-02-22T11:22:22;14.07;;;4.18;;
78312;SDS011;67568;47.438;21.408;2023-02-22T11:25:02;13.13;;;3.60;;
78312;SDS011;67568;47.438;21.408;2023-02-22T11:30:21;9.60;;;3.03;;
78312;SDS011;67568;47.438;21.408;2023-02-22T11:32:58;10.25;;;2.78;;
78312;SDS011;67568;47.438;21.408;2023-02-22T11:35:56;14.32;;;3.40;;
78312;SDS011;67568;47.438;21.408;2023-02-22T11:38:25;15.32;;;4.28;;
78312;SDS011;67568;47.438;21.408;2023-02-22T11:43:47;17.40;;;6.47;;
78312;SDS011;67568;47.438;21.408;2023-02-22T11:46:19;17.73;;;7.43;;
78312;SDS011;67568;47.438;21.408;2023-02-22T11:56:50;12.63;;;3.47;;
78312;SDS011;67568;47.438;21.408;2023-02-22T11:59:32;9.52;;;2.83;;
78312;SDS011;67568;47.438;21.408;2023-02-22T12:02:04;12.32;;;3.58;;
78312;SDS011;67568;47.438;21.408;2023-02-22T12:10:19;16.80;;;4.50;;
78312;SDS011;67568;47.438;21.408;2023-02-22T12:13:15;10.65;;;3.40;;
78312;SDS011;67568;47.438;21.408;2023-02-22T12:16:02;11.77;;;3.42;;
78312;SDS011;67568;47.438;21.408;2023-02-22T12:21:14;11.93;;;3.78;;
78312;SDS011;67568;47.438;21.408;2023-02-22T12:26:27;12.00;;;3.47;;
78312;SDS011;67568;47.438;21.408;2023-02-22T12:29:23;14.63;;;3.63;;
78312;SDS011;67568;47.438;21.408;2023-02-22T12:35:03;10.25;;;2.80;;
78312;SDS011;67568;47.438;21.408;2023-02-22T12:37:55;11.60;;;3.40;;
78312;SDS011;67568;47.438;21.408;2023-02-22T12:40:29;14.23;;;4.30;;
78312;SDS011;67568;47.438;21.408;2023-02-22T12:45:47;10.27;;;3.28;;
78312;SDS011;67568;47.438;21.408;2023-02-22T12:48:37;50.40;;;17.90;;
78312;SDS011;67568;47.438;21.408;2023-02-22T12:53:55;17.15;;;4.47;;
78312;SDS011;67568;47.438;21.408;2023-02-22T12:56:49;8.52;;;2.90;;
78312;SDS011;67568;47.438;21.408;2023-02-22T13:01:52;8.93;;;3.40;;
78312;SDS011;67568;47.438;21.408;2023-02-22T13:04:24;14.47;;;3.37;;
78312;SDS011;67568;47.438;21.408;2023-02-22T13:06:53;13.50;;;3.33;;
78312;SDS011;67568;47.438;21.408;2023-02-22T13:12:07;10.43;;;3.17;;
78312;SDS011;67568;47.438;21.408;2023-02-22T13:17:40;12.23;;;2.67;;
78312;SDS011;67568;47.438;21.408;2023-02-22T13:23:04;11.25;;;2.90;;
78312;SDS011;67568;47.438;21.408;2023-02-22T13:25:42;12.13;;;2.80;;
78312;SDS011;67568;47.438;21.408;2023-02-22T13:28:21;11.07;;;2.75;;
78312;SDS011;67568;47.438;21.408;2023-02-22T13:36:46;15.07;;;5.20;;
78312;SDS011;67568;47.438;21.408;2023-02-22T13:44:50;8.20;;;2.80;;
78312;SDS011;67568;47.438;21.408;2023-02-22T13:53:06;11.07;;;3.25;;
78312;SDS011;67568;47.438;21.408;2023-02-22T13:55:38;11.55;;;3.10;;
78312;SDS011;67568;47.438;21.408;2023-02-22T13:58:07;13.33;;;2.70;;
78312;SDS011;67568;47.438;21.408;2023-02-22T14:00:51;20.63;;;6.45;;
78312;SDS011;67568;47.438;21.408;2023-02-22T14:05:56;8.93;;;2.47;;
78312;SDS011;67568;47.438;21.408;2023-02-22T14:13:29;11.65;;;2.67;;
78312;SDS011;67568;47.438;21.408;2023-02-22T14:18:24;9.98;;;2.78;;
78312;SDS011;67568;47.438;21.408;2023-02-22T14:21:13;9.07;;;2.72;;
78312;SDS011;67568;47.438;21.408;2023-02-22T14:50:05;11.93;;;2.87;;
78312;SDS011;67568;47.438;21.408;2023-02-22T14:52:39;12.50;;;2.90;;
78312;SDS011;67568;47.438;21.408;2023-02-22T14:55:20;12.80;;;4.40;;
78312;SDS011;67568;47.438;21.408;2023-02-22T14:57:52;11.73;;;3.60;;
78312;SDS011;67568;47.438;21.408;2023-02-22T15:00:22;13.63;;;4.45;;
78312;SDS011;67568;47.438;21.408;2023-02-22T15:02:50;14.97;;;3.50;;
78312;SDS011;67568;47.438;21.408;2023-02-22T15:05:18;9.98;;;3.78;;
78312;SDS011;67568;47.438;21.408;2023-02-22T15:07:49;13.43;;;3.90;;
78312;SDS011;67568;47.438;21.408;2023-02-22T15:12:53;15.65;;;3.38;;
78312;SDS011;67568;47.438;21.408;2023-02-22T15:15:25;13.90;;;3.73;;
78312;SDS011;67568;47.438;21.408;2023-02-22T15:17:56;18.73;;;3.67;;
78312;SDS011;67568;47.438;21.408;2023-02-22T15:20:24;14.95;;;3.42;;
78312;SDS011;67568;47.438;21.408;2023-02-22T15:22:51;12.73;;;4.28;;
78312;SDS011;67568;47.438;21.408;2023-02-22T15:25:25;11.80;;;3.90;;
78312;SDS011;67568;47.438;21.408;2023-02-22T15:27:54;12.43;;;4.13;;
78312;SDS011;67568;47.438;21.408;2023-02-22T15:30:28;11.85;;;4.30;;
78312;SDS011;67568;47.438;21.408;2023-02-22T15:33:08;15.07;;;6.55;;
78312;SDS011;67568;47.438;21.408;2023-02-22T15:35:55;16.65;;;6.07;;
78312;SDS011;67568;47.438;21.408;2023-02-22T15:38:27;13.20;;;5.68;;
78312;SDS011;67568;47.438;21.408;2023-02-22T15:41:02;12.77;;;4.17;;
78312;SDS011;67568;47.438;21.408;2023-02-22T15:43:31;18.38;;;4.93;;
78312;SDS011;67568;47.438;21.408;2023-02-22T15:45:58;23.52;;;5.20;;
78312;SDS011;67568;47.438;21.408;2023-02-22T15:48:26;17.25;;;5.60;;
78312;SDS011;67568;47.438;21.408;2023-02-22T15:50:57;17.17;;;6.95;;
78312;SDS011;67568;47.438;21.408;2023-02-22T15:53:26;19.57;;;6.10;;
78312;SDS011;67568;47.438;21.408;2023-02-22T15:55:57;11.73;;;5.25;;
78312;SDS011;67568;47.438;21.408;2023-02-22T15:58:27;14.32;;;4.68;;
78312;SDS011;67568;47.438;21.408;2023-02-22T16:01:01;11.68;;;4.70;;
78312;SDS011;67568;47.438;21.408;2023-02-22T16:03:41;15.20;;;4.60;;
78312;SDS011;67568;47.438;21.408;2023-02-22T16:06:12;16.23;;;4.20;;
78312;SDS011;67568;47.438;21.408;2023-02-22T16:08:55;16.98;;;5.10;;
78312;SDS011;67568;47.438;21.408;2023-02-22T16:11:28;14.38;;;4.32;;
78312;SDS011;67568;47.438;21.408;2023-02-22T16:14:01;14.45;;;4.65;;
78312;SDS011;67568;47.438;21.408;2023-02-22T16:16:33;19.48;;;4.70;;
78312;SDS011;67568;47.438;21.408;2023-02-22T16:19:21;13.50;;;4.43;;
78312;SDS011;67568;47.438;21.408;2023-02-22T16:21:59;22.90;;;6.32;;
78312;SDS011;67568;47.438;21.408;2023-02-22T16:24:32;18.08;;;6.20;;
78312;SDS011;67568;47.438;21.408;2023-02-22T16:27:15;14.85;;;5.85;;
78312;SDS011;67568;47.438;21.408;2023-02-22T16:29:44;16.20;;;6.60;;
78312;SDS011;67568;47.438;21.408;2023-02-22T16:32:49;16.53;;;6.30;;
78312;SDS011;67568;47.438;21.408;2023-02-22T16:35:17;22.05;;;6.80;;
78312;SDS011;67568;47.438;21.408;2023-02-22T16:40:27;33.17;;;15.88;;
78312;SDS011;67568;47.438;21.408;2023-02-22T16:42:58;30.30;;;12.95;;
78312;SDS011;67568;47.438;21.408;2023-02-22T16:45:30;24.30;;;11.23;;
78312;SDS011;67568;47.438;21.408;2023-02-22T16:47:57;31.33;;;12.23;;
78312;SDS011;67568;47.438;21.408;2023-02-22T16:50:25;27.05;;;11.80;;
78312;SDS011;67568;47.438;21.408;2023-02-22T16:52:52;28.67;;;11.73;;
78312;SDS011;67568;47.438;21.408;2023-02-22T16:55:20;27.10;;;10.50;;
78312;SDS011;67568;47.438;21.408;2023-02-22T16:57:47;34.07;;;11.90;;
78312;SDS011;67568;47.438;21.408;2023-02-22T17:00:20;26.65;;;11.88;;
78312;SDS011;67568;47.438;21.408;2023-02-22T17:02:48;28.08;;;11.82;;
78312;SDS011;67568;47.438;21.408;2023-02-22T17:05:15;33.72;;;13.43;;
78312;SDS011;67568;47.438;21.408;2023-02-22T17:07:42;36.22;;;15.13;;
78312;SDS011;67568;47.438;21.408;2023-02-22T17:10:15;24.73;;;12.73;;
78312;SDS011;67568;47.438;21.408;2023-02-22T17:12:49;23.48;;;12.50;;
78312;SDS011;67568;47.438;21.408;2023-02-22T17:15:27;31.25;;;13.45;;
78312;SDS011;67568;47.438;21.408;2023-02-22T17:17:56;34.15;;;16.08;;